Coral Princess — ZCDF4 — position and weather

sailwx.info

Track history (hours):
 
Tides and Currents Weather Stations Pressure Air Temp Water Temp Dewpoint Dewpoint Depression Visibility Wind Speed Wind Dir Waves Ship Positions

Coral Princess

Operator: Princess Cruises

Last reported at 2017-Jul-22 12:30 UTC. Time now 2017-Jul-22 12:43 UTC.
Position N 49°18' W 123°18'.

Type: Passenger vessel. MMSI: 310376000.

Date/timePositionNaut miles runAvg speedWind from/ knotsBaromVisibWave heightAir tempDewpointWater temp
2017-Jul-22 12:30N 49°18' W 123°18'4 8.7
2017-Jul-22 12:00N 49°19' W 123°25'714.5
2017-Jul-22 11:30N 49°19' W 123°36'817.2
2017-Jul-22 11:00N 49°20' W 123°49'918.2
2017-Jul-22 10:30N 49°22' W 124°03'918.3
2017-Jul-22 09:59N 49°25' W 124°17'918.1
2017-Jul-22 09:30N 49°29' W 124°29'918.6
2017-Jul-22 09:00N 49°36' W 124°38'918.8
2017-Jul-22 08:30N 49°43' W 124°47'918.3
2017-Jul-22 08:00N 49°50' W 124°57'917.4
2017-Jul-22 07:30N 49°56' W 125°06'815.4
2017-Jul-22 07:00N 50°02' W 125°13'714.4
2017-Jul-22 06:31N 50°07' W 125°21'612.4
2017-Jul-22 06:00N 50°14' W 125°23'510.5
2017-Jul-22 05:30N 50°19' W 125°25'5212.5
2017-Jul-22 01:19N 50°35' W 126°43'617.0
2017-Jul-22 00:59N 50°39' W 126°50'817.8
2017-Jul-22 00:30N 50°43' W 127°01'917.7
2017-Jul-22 00:00N 50°47' W 127°14'917.1
2017-Jul-21 23:30N 50°50' W 127°27'816.7
2017-Jul-21 23:00N 50°54' W 127°38'815.5
2017-Jul-21 22:30N 50°59' W 127°47'611.5
2017-Jul-21 22:00N 51°03' W 127°55'712.9
2017-Jul-21 21:27N 51°07' W 128°03'612.6
2017-Jul-21 21:00N 51°11' W 128°10'612.9
2017-Jul-21 20:30N 51°15' W 128°17'612.7
2017-Jul-21 20:00N 51°21' W 128°22'713.1
2017-Jul-21 19:30N 51°27' W 128°25'713.1
2017-Jul-21 19:00N 51°34' W 128°29'613.0
2017-Jul-21 18:30N 51°40' W 128°32'612.1
2017-Jul-21 18:00N 51°45' W 128°35'612.1
2017-Jul-21 17:30N 51°50' W 128°42'612.5
2017-Jul-21 17:00N 51°54' W 128°50'612.8
2017-Jul-21 16:30N 51°58' W 128°58'612.5
2017-Jul-21 16:00N 52°02' W 129°06'612.7
2017-Jul-21 15:30N 52°06' W 129°13'612.7
2017-Jul-21 15:00N 52°10' W 129°22'2258.5
2017-Jul-21 15:00N 52°12' W 129°24'4 7.9 160 / 351016.3 5.4 13.512.614.0
2017-Jul-21 14:30N 52°14' W 129°29'232 9.5
2017-Jul-20 14:00N 55°42' W 132°24'   190 / 151014.410.8 13.510.610.0
2017-Jul-18 05:42N 58°09' W 135°17'312.8
2017-Jul-18 05:29N 58°11' W 135°21'712.8
2017-Jul-18 04:58N 58°14' W 135°32'612.7
2017-Jul-18 04:31N 58°17' W 135°41'612.8
2017-Jul-18 04:01N 58°19' W 135°52'612.0
2017-Jul-18 03:31N 58°24' W 135°59'5 9.5
2017-Jul-18 03:00N 58°29' W 136°03'612.4
2017-Jul-18 02:31N 58°35' W 136°04'713.0
2017-Jul-18 02:00N 58°41' W 136°11'713.1
2017-Jul-18 01:29N 58°45' W 136°20'7 1.2
2017-Jul-17 19:27N 58°50' W 136°30'713.4
2017-Jul-17 18:57N 58°45' W 136°20'613.0
2017-Jul-17 18:30N 58°41' W 136°12'815.5
2017-Jul-17 18:00N 58°35' W 136°04'815.3
2017-Jul-17 17:30N 58°27' W 136°01'5 9.9
2017-Jul-17 17:00N 58°23' W 135°59'611.9
2017-Jul-17 16:30N 58°19' W 136°08'13610.1
2017-Jul-17 03:00N 59°30' W 139°54'   230 / 171020.9 5.4 13.511.614.0
2017-Jul-14 03:00N 58°24' W 138°00'5819.0 210 / 51020.7 12.511.613.0
2017-Jul-13 23:55N 58°19' W 136°09'715.9
2017-Jul-13 23:30N 58°23' W 135°60'5 9.3
2017-Jul-13 23:00N 58°28' W 136°02'815.9
2017-Jul-13 22:30N 58°36' W 136°04'18 2.9
2017-Jul-13 16:14N 58°49' W 136°29'513.2
2017-Jul-13 15:50N 58°46' W 136°21'413.0
2017-Jul-13 15:29N 58°43' W 136°14'917.7
2017-Jul-13 15:00N 58°36' W 136°04'816.4
2017-Jul-13 14:30N 58°28' W 136°02'510.1
2017-Jul-13 14:00N 58°24' W 135°57'510.4
2017-Jul-13 13:30N 58°19' W 135°53'611.9
2017-Jul-13 13:00N 58°17' W 135°42'611.9
2017-Jul-13 12:30N 58°15' W 135°31'  
Track history (hours):
 
Tides and Currents Weather Stations Pressure Air Temp Water Temp Dewpoint Dewpoint Depression Visibility Wind Speed Wind Dir Waves Ship Positions

Coral Princess

Operator: Princess Cruises

Last reported at 2017-Jul-22 12:30 UTC. Time now 2017-Jul-22 12:43 UTC.
Position N 49°18' W 123°18'.

Type: Passenger vessel. MMSI: 310376000.

Date/timePositionNaut miles runAvg speedWind from/ knotsBaromVisibWave heightAir tempDewpointWater temp
2017-Jul-22 12:30N 49°18' W 123°18'4 8.7
2017-Jul-22 12:00N 49°19' W 123°25'714.5
2017-Jul-22 11:30N 49°19' W 123°36'817.2
2017-Jul-22 11:00N 49°20' W 123°49'918.2
2017-Jul-22 10:30N 49°22' W 124°03'918.3
2017-Jul-22 09:59N 49°25' W 124°17'918.1
2017-Jul-22 09:30N 49°29' W 124°29'918.6
2017-Jul-22 09:00N 49°36' W 124°38'918.8
2017-Jul-22 08:30N 49°43' W 124°47'918.3
2017-Jul-22 08:00N 49°50' W 124°57'917.4
2017-Jul-22 07:30N 49°56' W 125°06'815.4
2017-Jul-22 07:00N 50°02' W 125°13'714.4
2017-Jul-22 06:31N 50°07' W 125°21'612.4
2017-Jul-22 06:00N 50°14' W 125°23'510.5
2017-Jul-22 05:30N 50°19' W 125°25'5212.5
2017-Jul-22 01:19N 50°35' W 126°43'617.0
2017-Jul-22 00:59N 50°39' W 126°50'817.8
2017-Jul-22 00:30N 50°43' W 127°01'917.7
2017-Jul-22 00:00N 50°47' W 127°14'917.1
2017-Jul-21 23:30N 50°50' W 127°27'816.7
2017-Jul-21 23:00N 50°54' W 127°38'815.5
2017-Jul-21 22:30N 50°59' W 127°47'611.5
2017-Jul-21 22:00N 51°03' W 127°55'712.9
2017-Jul-21 21:27N 51°07' W 128°03'612.6
2017-Jul-21 21:00N 51°11' W 128°10'612.9
2017-Jul-21 20:30N 51°15' W 128°17'612.7
2017-Jul-21 20:00N 51°21' W 128°22'713.1
2017-Jul-21 19:30N 51°27' W 128°25'713.1
2017-Jul-21 19:00N 51°34' W 128°29'613.0
2017-Jul-21 18:30N 51°40' W 128°32'612.1
2017-Jul-21 18:00N 51°45' W 128°35'612.1
2017-Jul-21 17:30N 51°50' W 128°42'612.5
2017-Jul-21 17:00N 51°54' W 128°50'612.8
2017-Jul-21 16:30N 51°58' W 128°58'612.5
2017-Jul-21 16:00N 52°02' W 129°06'612.7
2017-Jul-21 15:30N 52°06' W 129°13'612.7
2017-Jul-21 15:00N 52°10' W 129°22'2258.5
2017-Jul-21 15:00N 52°12' W 129°24'4 7.9 160 / 351016.3 5.4 13.512.614.0
2017-Jul-21 14:30N 52°14' W 129°29'232 9.5
2017-Jul-20 14:00N 55°42' W 132°24'   190 / 151014.410.8 13.510.610.0
2017-Jul-18 05:42N 58°09' W 135°17'312.8
2017-Jul-18 05:29N 58°11' W 135°21'712.8
2017-Jul-18 04:58N 58°14' W 135°32'612.7
2017-Jul-18 04:31N 58°17' W 135°41'612.8
2017-Jul-18 04:01N 58°19' W 135°52'612.0
2017-Jul-18 03:31N 58°24' W 135°59'5 9.5
2017-Jul-18 03:00N 58°29' W 136°03'612.4
2017-Jul-18 02:31N 58°35' W 136°04'713.0
2017-Jul-18 02:00N 58°41' W 136°11'713.1
2017-Jul-18 01:29N 58°45' W 136°20'7 1.2
2017-Jul-17 19:27N 58°50' W 136°30'713.4
2017-Jul-17 18:57N 58°45' W 136°20'613.0
2017-Jul-17 18:30N 58°41' W 136°12'815.5
2017-Jul-17 18:00N 58°35' W 136°04'815.3
2017-Jul-17 17:30N 58°27' W 136°01'5 9.9
2017-Jul-17 17:00N 58°23' W 135°59'611.9
2017-Jul-17 16:30N 58°19' W 136°08'13610.1
2017-Jul-17 03:00N 59°30' W 139°54'   230 / 171020.9 5.4 13.511.614.0
2017-Jul-14 03:00N 58°24' W 138°00'5819.0 210 / 51020.7 12.511.613.0
2017-Jul-13 23:55N 58°19' W 136°09'715.9
2017-Jul-13 23:30N 58°23' W 135°60'5 9.3
2017-Jul-13 23:00N 58°28' W 136°02'815.9
2017-Jul-13 22:30N 58°36' W 136°04'18 2.9
2017-Jul-13 16:14N 58°49' W 136°29'513.2
2017-Jul-13 15:50N 58°46' W 136°21'413.0
2017-Jul-13 15:29N 58°43' W 136°14'917.7
2017-Jul-13 15:00N 58°36' W 136°04'816.4
2017-Jul-13 14:30N 58°28' W 136°02'510.1
2017-Jul-13 14:00N 58°24' W 135°57'510.4
2017-Jul-13 13:30N 58°19' W 135°53'611.9
2017-Jul-13 13:00N 58°17' W 135°42'611.9
2017-Jul-13 12:30N 58°15' W 135°31'  

Dump ship's entire track history